Fairchance, Pennsylvania
Current Conditions -  °F | °C
As of 2:53 AM on Sunday 26 Oct 2014 (Local Time) from KMGW Reporting Station
Clear Clear  
Wind Chill: 58°   Ceiling: Unl
Heat Index: 58°   Visibility: 10mi
Dew Point: 32°   Wind: 6mph
Humidity: 37%   Direction: NA
Pressure: 29.84"   Gusts: NA
Location:  39.82°N, 79.75°W
Report Text: KMGW 260653Z AUTO VRB05KT 10SM CLR 14/00 A2984 RMK AO2 SLP101 T01440000 TSNO
Loading
Personal Weather Stations






























Interactive Weather Map New forecast layout! Learn more

10-Day Weather Forecast

Advertisements
Track Severe Weather on mobile